sensor_id;sensor_type;location;lat;lon;timestamp;pressure;altitude;pressure_sealevel;temperature;humidity
48089;BME280;33867;50.314;7.802;2023-05-24T00:02:34;100987.03;;;8.26;nan
48089;BME280;33867;50.314;7.802;2023-05-24T00:05:55;100990.06;;;8.21;nan
48089;BME280;33867;50.314;7.802;2023-05-24T00:09:14;100983.88;;;8.08;nan
48089;BME280;33867;50.314;7.802;2023-05-24T00:12:34;100989.56;;;8.03;nan
48089;BME280;33867;50.314;7.802;2023-05-24T00:15:53;100997.50;;;8.05;nan
48089;BME280;33867;50.314;7.802;2023-05-24T00:19:12;101001.16;;;8.04;nan
48089;BME280;33867;50.314;7.802;2023-05-24T00:22:36;101002.97;;;8.03;nan
48089;BME280;33867;50.314;7.802;2023-05-24T00:25:55;101001.50;;;7.99;nan
48089;BME280;33867;50.314;7.802;2023-05-24T00:29:14;101005.69;;;7.90;nan
48089;BME280;33867;50.314;7.802;2023-05-24T00:32:33;101005.19;;;7.85;nan
48089;BME280;33867;50.314;7.802;2023-05-24T00:35:53;101006.38;;;7.69;nan
48089;BME280;33867;50.314;7.802;2023-05-24T00:39:14;101005.25;;;7.47;nan
48089;BME280;33867;50.314;7.802;2023-05-24T00:42:35;101018.53;;;7.49;nan
48089;BME280;33867;50.314;7.802;2023-05-24T00:46:17;101014.25;;;7.59;nan
48089;BME280;33867;50.314;7.802;2023-05-24T00:49:36;101010.38;;;7.63;nan
48089;BME280;33867;50.314;7.802;2023-05-24T00:52:56;101012.28;;;7.61;nan
48089;BME280;33867;50.314;7.802;2023-05-24T00:56:19;101011.00;;;7.54;nan
48089;BME280;33867;50.314;7.802;2023-05-24T00:59:39;101002.00;;;7.55;nan
48089;BME280;33867;50.314;7.802;2023-05-24T01:02:58;100998.34;;;7.56;nan
48089;BME280;33867;50.314;7.802;2023-05-24T01:06:18;101012.72;;;7.55;nan
48089;BME280;33867;50.314;7.802;2023-05-24T01:09:52;101013.78;;;7.52;nan
48089;BME280;33867;50.314;7.802;2023-05-24T01:13:41;101014.13;;;7.48;nan
48089;BME280;33867;50.314;7.802;2023-05-24T01:17:15;101006.97;;;7.36;nan
48089;BME280;33867;50.314;7.802;2023-05-24T01:20:38;101007.47;;;7.41;nan
48089;BME280;33867;50.314;7.802;2023-05-24T01:27:27;100997.84;;;7.38;nan
48089;BME280;33867;50.314;7.802;2023-05-24T01:30:49;101001.78;;;7.32;nan
48089;BME280;33867;50.314;7.802;2023-05-24T01:34:10;100999.34;;;7.29;nan
48089;BME280;33867;50.314;7.802;2023-05-24T01:37:29;100996.88;;;7.26;nan
48089;BME280;33867;50.314;7.802;2023-05-24T01:40:51;100996.88;;;7.26;nan
48089;BME280;33867;50.314;7.802;2023-05-24T01:44:28;101010.56;;;7.22;nan
48089;BME280;33867;50.314;7.802;2023-05-24T01:51:52;101003.59;;;6.94;nan
48089;BME280;33867;50.314;7.802;2023-05-24T01:55:14;101002.09;;;6.90;nan
48089;BME280;33867;50.314;7.802;2023-05-24T01:58:35;101001.75;;;6.82;nan
48089;BME280;33867;50.314;7.802;2023-05-24T02:01:56;101012.09;;;6.73;nan
48089;BME280;33867;50.314;7.802;2023-05-24T02:05:15;101021.09;;;6.72;nan
48089;BME280;33867;50.314;7.802;2023-05-24T02:08:34;101016.47;;;6.74;nan
48089;BME280;33867;50.314;7.802;2023-05-24T02:11:53;101015.53;;;6.49;nan
48089;BME280;33867;50.314;7.802;2023-05-24T02:15:12;101012.28;;;6.31;nan
48089;BME280;33867;50.314;7.802;2023-05-24T02:18:32;101018.50;;;6.31;nan
48089;BME280;33867;50.314;7.802;2023-05-24T02:21:52;101013.41;;;6.41;nan
48089;BME280;33867;50.314;7.802;2023-05-24T02:25:12;101014.91;;;6.45;nan
48089;BME280;33867;50.314;7.802;2023-05-24T02:28:31;101012.44;;;6.42;nan
48089;BME280;33867;50.314;7.802;2023-05-24T02:31:50;101014.91;;;6.45;nan
48089;BME280;33867;50.314;7.802;2023-05-24T02:35:13;101016.06;;;6.41;nan
48089;BME280;33867;50.314;7.802;2023-05-24T02:38:33;101011.59;;;6.41;nan
48089;BME280;33867;50.314;7.802;2023-05-24T02:41:52;101008.53;;;6.06;nan
48089;BME280;33867;50.314;7.802;2023-05-24T02:45:11;101003.94;;;5.80;nan
48089;BME280;33867;50.314;7.802;2023-05-24T02:48:30;100995.94;;;5.66;nan
48089;BME280;33867;50.314;7.802;2023-05-24T02:51:49;101000.13;;;5.55;nan
48089;BME280;33867;50.314;7.802;2023-05-24T02:55:09;100996.97;;;5.77;nan
48089;BME280;33867;50.314;7.802;2023-05-24T02:58:28;100999.94;;;5.87;nan
48089;BME280;33867;50.314;7.802;2023-05-24T03:01:48;100998.63;;;5.94;nan
48089;BME280;33867;50.314;7.802;2023-05-24T03:05:08;101001.53;;;5.90;nan
48089;BME280;33867;50.314;7.802;2023-05-24T03:08:28;101003.22;;;5.92;nan
48089;BME280;33867;50.314;7.802;2023-05-24T03:11:47;101005.78;;;5.51;nan
48089;BME280;33867;50.314;7.802;2023-05-24T03:15:06;100996.16;;;5.48;nan
48089;BME280;33867;50.314;7.802;2023-05-24T03:18:26;100995.19;;;5.35;nan
48089;BME280;33867;50.314;7.802;2023-05-24T03:21:46;101004.91;;;5.36;nan
48089;BME280;33867;50.314;7.802;2023-05-24T03:25:05;100998.44;;;5.40;nan
48089;BME280;33867;50.314;7.802;2023-05-24T03:28:26;101009.22;;;5.53;nan
48089;BME280;33867;50.314;7.802;2023-05-24T03:31:46;100998.44;;;5.40;nan
48089;BME280;33867;50.314;7.802;2023-05-24T03:35:05;101004.72;;;5.11;nan
48089;BME280;33867;50.314;7.802;2023-05-24T03:38:25;100995.38;;;5.32;nan
48089;BME280;33867;50.314;7.802;2023-05-24T03:41:44;101002.91;;;5.40;nan
48089;BME280;33867;50.314;7.802;2023-05-24T03:45:04;100994.69;;;5.43;nan
48089;BME280;33867;50.314;7.802;2023-05-24T03:48:23;101001.00;;;5.42;nan
48089;BME280;33867;50.314;7.802;2023-05-24T03:51:44;100997.88;;;5.49;nan
48089;BME280;33867;50.314;7.802;2023-05-24T03:55:03;100999.22;;;5.56;nan
48089;BME280;33867;50.314;7.802;2023-05-24T03:58:22;101000.94;;;5.57;nan
48089;BME280;33867;50.314;7.802;2023-05-24T04:01:42;101010.56;;;5.60;nan
48089;BME280;33867;50.314;7.802;2023-05-24T04:05:01;101015.03;;;5.60;nan
48089;BME280;33867;50.314;7.802;2023-05-24T04:08:20;101022.28;;;5.57;nan
48089;BME280;33867;50.314;7.802;2023-05-24T04:11:40;101025.94;;;5.56;nan
48089;BME280;33867;50.314;7.802;2023-05-24T04:14:59;101037.72;;;5.67;nan
48089;BME280;33867;50.314;7.802;2023-05-24T04:18:19;101041.16;;;5.26;nan
48089;BME280;33867;50.314;7.802;2023-05-24T04:21:39;101042.41;;;5.49;nan
48089;BME280;33867;50.314;7.802;2023-05-24T04:24:58;101036.41;;;5.60;nan
48089;BME280;33867;50.314;7.802;2023-05-24T04:28:17;101039.94;;;5.60;nan
48089;BME280;33867;50.314;7.802;2023-05-24T04:31:40;101038.41;;;5.70;nan
48089;BME280;33867;50.314;7.802;2023-05-24T04:35:02;101031.91;;;5.74;nan
48089;BME280;33867;50.314;7.802;2023-05-24T04:38:22;101033.31;;;5.80;nan
48089;BME280;33867;50.314;7.802;2023-05-24T04:41:42;101045.19;;;5.76;nan
48089;BME280;33867;50.314;7.802;2023-05-24T04:45:02;101039.75;;;5.63;nan
48089;BME280;33867;50.314;7.802;2023-05-24T04:48:21;101038.66;;;5.80;nan
48089;BME280;33867;50.314;7.802;2023-05-24T04:51:42;101038.72;;;5.94;nan
48089;BME280;33867;50.314;7.802;2023-05-24T04:55:02;101037.75;;;5.95;nan
48089;BME280;33867;50.314;7.802;2023-05-24T04:58:21;101041.50;;;5.93;nan
48089;BME280;33867;50.314;7.802;2023-05-24T05:01:40;101038.91;;;6.05;nan
48089;BME280;33867;50.314;7.802;2023-05-24T05:04:59;101046.72;;;6.08;nan
48089;BME280;33867;50.314;7.802;2023-05-24T05:08:19;101047.88;;;5.90;nan
48089;BME280;33867;50.314;7.802;2023-05-24T05:11:38;101051.09;;;5.81;nan
48089;BME280;33867;50.314;7.802;2023-05-24T05:14:57;101050.53;;;5.90;nan
48089;BME280;33867;50.314;7.802;2023-05-24T05:18:16;101056.44;;;5.81;nan
48089;BME280;33867;50.314;7.802;2023-05-24T05:21:36;101062.09;;;5.91;nan
48089;BME280;33867;50.314;7.802;2023-05-24T05:24:57;101065.03;;;6.14;nan
48089;BME280;33867;50.314;7.802;2023-05-24T05:28:16;101066.25;;;6.23;nan
48089;BME280;33867;50.314;7.802;2023-05-24T05:31:35;101066.16;;;6.25;nan
48089;BME280;33867;50.314;7.802;2023-05-24T05:34:54;101064.31;;;6.39;nan
48089;BME280;33867;50.314;7.802;2023-05-24T05:38:13;101063.31;;;6.55;nan
48089;BME280;33867;50.314;7.802;2023-05-24T05:41:32;101072.66;;;6.89;nan
48089;BME280;33867;50.314;7.802;2023-05-24T05:44:51;101070.19;;;6.98;nan
48089;BME280;33867;50.314;7.802;2023-05-24T05:48:11;101061.44;;;7.22;nan
48089;BME280;33867;50.314;7.802;2023-05-24T05:51:30;101076.84;;;8.93;nan
48089;BME280;33867;50.314;7.802;2023-05-24T05:54:49;101074.66;;;11.11;nan
48089;BME280;33867;50.314;7.802;2023-05-24T05:58:08;101069.28;;;14.26;nan
48089;BME280;33867;50.314;7.802;2023-05-24T06:01:27;101062.44;;;16.43;nan
48089;BME280;33867;50.314;7.802;2023-05-24T06:04:48;101061.34;;;18.16;nan
48089;BME280;33867;50.314;7.802;2023-05-24T06:08:07;101055.28;;;19.22;nan
48089;BME280;33867;50.314;7.802;2023-05-24T06:11:26;101055.72;;;20.75;nan
48089;BME280;33867;50.314;7.802;2023-05-24T06:14:45;101058.63;;;21.09;nan
48089;BME280;33867;50.314;7.802;2023-05-24T06:18:08;101058.63;;;21.30;nan
48089;BME280;33867;50.314;7.802;2023-05-24T06:21:27;101057.47;;;22.30;nan
48089;BME280;33867;50.314;7.802;2023-05-24T06:24:47;101047.28;;;21.34;nan
48089;BME280;33867;50.314;7.802;2023-05-24T06:28:06;101045.97;;;22.13;nan
48089;BME280;33867;50.314;7.802;2023-05-24T06:31:26;101053.88;;;22.02;nan
48089;BME280;33867;50.314;7.802;2023-05-24T06:34:45;101047.00;;;21.28;nan
48089;BME280;33867;50.314;7.802;2023-05-24T06:38:04;101054.72;;;21.96;nan
48089;BME280;33867;50.314;7.802;2023-05-24T06:41:23;101038.97;;;23.99;nan
48089;BME280;33867;50.314;7.802;2023-05-24T06:44:43;101034.69;;;25.13;nan
48089;BME280;33867;50.314;7.802;2023-05-24T06:48:02;101032.69;;;26.38;nan
48089;BME280;33867;50.314;7.802;2023-05-24T06:51:21;101023.38;;;26.32;nan
48089;BME280;33867;50.314;7.802;2023-05-24T06:54:40;101025.41;;;25.57;nan
48089;BME280;33867;50.314;7.802;2023-05-24T06:58:00;101025.41;;;25.32;nan
48089;BME280;33867;50.314;7.802;2023-05-24T07:01:19;101031.16;;;22.42;nan
48089;BME280;33867;50.314;7.802;2023-05-24T07:04:38;101022.94;;;19.56;nan
48089;BME280;33867;50.314;7.802;2023-05-24T07:08:00;101013.94;;;21.30;nan
48089;BME280;33867;50.314;7.802;2023-05-24T07:11:19;101022.19;;;20.51;nan
48089;BME280;33867;50.314;7.802;2023-05-24T07:14:39;101026.78;;;20.36;nan
48089;BME280;33867;50.314;7.802;2023-05-24T07:17:58;101031.38;;;19.24;nan
48089;BME280;33867;50.314;7.802;2023-05-24T07:21:17;101052.91;;;18.73;nan
48089;BME280;33867;50.314;7.802;2023-05-24T07:24:36;101059.91;;;20.11;nan
48089;BME280;33867;50.314;7.802;2023-05-24T07:27:55;101053.41;;;20.78;nan
48089;BME280;33867;50.314;7.802;2023-05-24T07:31:14;101052.81;;;19.73;nan
48089;BME280;33867;50.314;7.802;2023-05-24T07:34:34;101038.91;;;20.78;nan
48089;BME280;33867;50.314;7.802;2023-05-24T07:37:53;101035.38;;;21.48;nan
48089;BME280;33867;50.314;7.802;2023-05-24T07:41:12;101052.34;;;19.46;nan
48089;BME280;33867;50.314;7.802;2023-05-24T07:44:32;101054.94;;;21.23;nan
48089;BME280;33867;50.314;7.802;2023-05-24T07:47:51;101049.81;;;22.19;nan
48089;BME280;33867;50.314;7.802;2023-05-24T07:51:10;101054.06;;;21.94;nan
48089;BME280;33867;50.314;7.802;2023-05-24T07:54:29;101059.63;;;20.51;nan
48089;BME280;33867;50.314;7.802;2023-05-24T07:57:48;101044.25;;;20.20;nan
48089;BME280;33867;50.314;7.802;2023-05-24T08:01:07;101049.13;;;17.88;nan
48089;BME280;33867;50.314;7.802;2023-05-24T08:04:26;101053.75;;;16.89;nan
48089;BME280;33867;50.314;7.802;2023-05-24T08:07:45;101060.75;;;16.42;nan
48089;BME280;33867;50.314;7.802;2023-05-24T08:11:04;101059.47;;;15.24;nan
48089;BME280;33867;50.314;7.802;2023-05-24T08:14:23;101056.44;;;15.63;nan
48089;BME280;33867;50.314;7.802;2023-05-24T08:17:43;101079.47;;;14.87;nan
48089;BME280;33867;50.314;7.802;2023-05-24T08:21:02;101086.56;;;13.69;nan
48089;BME280;33867;50.314;7.802;2023-05-24T08:24:21;101088.19;;;13.33;nan
48089;BME280;33867;50.314;7.802;2023-05-24T08:27:40;101096.00;;;13.55;nan
48089;BME280;33867;50.314;7.802;2023-05-24T08:30:59;101104.81;;;13.48;nan
48089;BME280;33867;50.314;7.802;2023-05-24T08:34:18;101103.72;;;13.50;nan
48089;BME280;33867;50.314;7.802;2023-05-24T08:37:37;101102.63;;;14.27;nan
48089;BME280;33867;50.314;7.802;2023-05-24T08:40:56;101095.22;;;15.02;nan
48089;BME280;33867;50.314;7.802;2023-05-24T08:44:16;101098.22;;;16.30;nan
48089;BME280;33867;50.314;7.802;2023-05-24T08:47:35;101093.63;;;15.96;nan
48089;BME280;33867;50.314;7.802;2023-05-24T08:50:56;101091.31;;;16.78;nan
48089;BME280;33867;50.314;7.802;2023-05-24T08:54:17;101097.13;;;16.99;nan
48089;BME280;33867;50.314;7.802;2023-05-24T08:57:37;101086.78;;;17.51;nan
48089;BME280;33867;50.314;7.802;2023-05-24T09:00:58;101077.91;;;16.84;nan
48089;BME280;33867;50.314;7.802;2023-05-24T09:04:20;101078.81;;;16.17;nan
48089;BME280;33867;50.314;7.802;2023-05-24T09:07:41;101065.66;;;16.04;nan
48089;BME280;33867;50.314;7.802;2023-05-24T09:11:02;101063.44;;;16.92;nan
48089;BME280;33867;50.314;7.802;2023-05-24T09:14:21;101067.44;;;18.96;nan
48089;BME280;33867;50.314;7.802;2023-05-24T09:17:40;101060.66;;;20.05;nan
48089;BME280;33867;50.314;7.802;2023-05-24T09:21:00;101053.41;;;20.42;nan
48089;BME280;33867;50.314;7.802;2023-05-24T09:24:19;101048.88;;;20.85;nan
48089;BME280;33867;50.314;7.802;2023-05-24T09:27:38;101047.53;;;19.56;nan
48089;BME280;33867;50.314;7.802;2023-05-24T09:31:00;101047.47;;;19.79;nan
48089;BME280;33867;50.314;7.802;2023-05-24T09:34:20;101036.53;;;21.60;nan
48089;BME280;33867;50.314;7.802;2023-05-24T09:37:39;101025.63;;;21.39;nan
48089;BME280;33867;50.314;7.802;2023-05-24T09:41:06;101031.28;;;22.82;nan
48089;BME280;33867;50.314;7.802;2023-05-24T09:44:26;101027.34;;;22.43;nan
48089;BME280;33867;50.314;7.802;2023-05-24T09:47:45;101025.34;;;20.91;nan
48089;BME280;33867;50.314;7.802;2023-05-24T09:51:06;101024.34;;;20.11;nan
48089;BME280;33867;50.314;7.802;2023-05-24T09:54:27;101016.69;;;19.25;nan
48089;BME280;33867;50.314;7.802;2023-05-24T09:57:51;101031.53;;;19.08;nan
48089;BME280;33867;50.314;7.802;2023-05-24T10:01:10;101029.25;;;18.26;nan
48089;BME280;33867;50.314;7.802;2023-05-24T10:04:32;101025.16;;;17.75;nan
48089;BME280;33867;50.314;7.802;2023-05-24T10:07:51;101022.06;;;16.64;nan
48089;BME280;33867;50.314;7.802;2023-05-24T10:11:11;101021.88;;;16.49;nan
48089;BME280;33867;50.314;7.802;2023-05-24T10:14:32;101020.25;;;16.73;nan
48089;BME280;33867;50.314;7.802;2023-05-24T10:17:52;101027.72;;;17.52;nan
48089;BME280;33867;50.314;7.802;2023-05-24T10:21:12;101019.56;;;17.60;nan
48089;BME280;33867;50.314;7.802;2023-05-24T10:24:34;101011.31;;;18.01;nan
48089;BME280;33867;50.314;7.802;2023-05-24T10:28:00;101011.44;;;17.19;nan
48089;BME280;33867;50.314;7.802;2023-05-24T10:31:24;101007.72;;;18.93;nan
48089;BME280;33867;50.314;7.802;2023-05-24T10:34:46;100992.34;;;20.41;nan
48089;BME280;33867;50.314;7.802;2023-05-24T10:38:07;100992.63;;;20.61;nan
48089;BME280;33867;50.314;7.802;2023-05-24T10:41:26;100982.66;;;19.50;nan
48089;BME280;33867;50.314;7.802;2023-05-24T10:44:45;100992.19;;;19.17;nan
48089;BME280;33867;50.314;7.802;2023-05-24T10:51:47;100981.56;;;21.19;nan
48089;BME280;33867;50.314;7.802;2023-05-24T10:55:07;100974.88;;;21.77;nan
48089;BME280;33867;50.314;7.802;2023-05-24T11:01:57;100985.97;;;20.70;nan
48089;BME280;33867;50.314;7.802;2023-05-24T11:05:17;100989.75;;;20.19;nan
48089;BME280;33867;50.314;7.802;2023-05-24T11:08:40;100989.41;;;19.77;nan
48089;BME280;33867;50.314;7.802;2023-05-24T11:12:05;100982.63;;;19.73;nan
48089;BME280;33867;50.314;7.802;2023-05-24T11:15:28;100994.91;;;17.45;nan
48089;BME280;33867;50.314;7.802;2023-05-24T11:18:54;100983.84;;;18.10;nan
48089;BME280;33867;50.314;7.802;2023-05-24T11:22:13;100980.09;;;18.74;nan
48089;BME280;33867;50.314;7.802;2023-05-24T11:25:32;100988.75;;;18.23;nan
48089;BME280;33867;50.314;7.802;2023-05-24T11:28:54;100984.16;;;17.60;nan
48089;BME280;33867;50.314;7.802;2023-05-24T11:32:18;100978.78;;;17.03;nan
48089;BME280;33867;50.314;7.802;2023-05-24T11:35:38;100991.16;;;18.10;nan
48089;BME280;33867;50.314;7.802;2023-05-24T11:38:57;100980.59;;;18.77;nan
48089;BME280;33867;50.314;7.802;2023-05-24T11:42:16;100981.00;;;19.12;nan
48089;BME280;33867;50.314;7.802;2023-05-24T11:45:35;100974.44;;;19.36;nan
48089;BME280;33867;50.314;7.802;2023-05-24T11:48:58;100970.00;;;19.72;nan
48089;BME280;33867;50.314;7.802;2023-05-24T11:52:17;100979.69;;;19.75;nan
48089;BME280;33867;50.314;7.802;2023-05-24T11:55:38;100983.31;;;19.38;nan
48089;BME280;33867;50.314;7.802;2023-05-24T12:02:31;100976.25;;;18.29;nan
48089;BME280;33867;50.314;7.802;2023-05-24T12:05:50;100984.25;;;18.30;nan
48089;BME280;33867;50.314;7.802;2023-05-24T12:09:14;100987.22;;;16.59;nan
48089;BME280;33867;50.314;7.802;2023-05-24T12:12:34;100987.13;;;16.85;nan
48089;BME280;33867;50.314;7.802;2023-05-24T12:15:54;101003.94;;;16.81;nan
48089;BME280;33867;50.314;7.802;2023-05-24T12:22:36;100998.00;;;16.85;nan
48089;BME280;33867;50.314;7.802;2023-05-24T12:25:59;100989.91;;;16.43;nan
48089;BME280;33867;50.314;7.802;2023-05-24T12:29:19;100985.75;;;16.73;nan
48089;BME280;33867;50.314;7.802;2023-05-24T12:32:38;100982.97;;;15.98;nan
48089;BME280;33867;50.314;7.802;2023-05-24T12:35:57;100973.97;;;16.48;nan
48089;BME280;33867;50.314;7.802;2023-05-24T12:39:26;100974.19;;;17.20;nan
48089;BME280;33867;50.314;7.802;2023-05-24T12:42:50;100968.84;;;17.59;nan
48089;BME280;33867;50.314;7.802;2023-05-24T12:46:11;100983.56;;;16.93;nan
48089;BME280;33867;50.314;7.802;2023-05-24T12:49:31;100983.28;;;15.95;nan
48089;BME280;33867;50.314;7.802;2023-05-24T12:52:51;100975.94;;;15.54;nan
48089;BME280;33867;50.314;7.802;2023-05-24T12:56:13;100980.63;;;16.03;nan
48089;BME280;33867;50.314;7.802;2023-05-24T12:59:32;100982.03;;;16.82;nan
48089;BME280;33867;50.314;7.802;2023-05-24T13:02:52;100970.31;;;17.06;nan
48089;BME280;33867;50.314;7.802;2023-05-24T13:06:13;100963.78;;;17.40;nan
48089;BME280;33867;50.314;7.802;2023-05-24T13:09:33;100972.94;;;17.55;nan
48089;BME280;33867;50.314;7.802;2023-05-24T13:12:52;100967.50;;;17.55;nan
48089;BME280;33867;50.314;7.802;2023-05-24T13:16:12;100969.19;;;17.56;nan
48089;BME280;33867;50.314;7.802;2023-05-24T13:19:30;100964.25;;;17.51;nan
48089;BME280;33867;50.314;7.802;2023-05-24T13:22:50;100969.47;;;17.86;nan
48089;BME280;33867;50.314;7.802;2023-05-24T13:26:09;100968.03;;;18.06;nan
48089;BME280;33867;50.314;7.802;2023-05-24T13:29:29;100968.63;;;17.85;nan
48089;BME280;33867;50.314;7.802;2023-05-24T13:32:48;100970.06;;;17.40;nan
48089;BME280;33867;50.314;7.802;2023-05-24T13:36:07;100974.63;;;17.72;nan
48089;BME280;33867;50.314;7.802;2023-05-24T13:39:27;100965.38;;;16.93;nan
48089;BME280;33867;50.314;7.802;2023-05-24T13:42:46;100960.53;;;15.62;nan
48089;BME280;33867;50.314;7.802;2023-05-24T13:46:05;100963.13;;;15.64;nan
48089;BME280;33867;50.314;7.802;2023-05-24T13:49:24;100964.78;;;15.13;nan
48089;BME280;33867;50.314;7.802;2023-05-24T13:52:44;100949.53;;;15.38;nan
48089;BME280;33867;50.314;7.802;2023-05-24T13:56:03;100945.59;;;15.92;nan
48089;BME280;33867;50.314;7.802;2023-05-24T13:59:22;100944.44;;;16.03;nan
48089;BME280;33867;50.314;7.802;2023-05-24T14:02:42;100948.34;;;16.00;nan
48089;BME280;33867;50.314;7.802;2023-05-24T14:06:01;100947.97;;;15.87;nan
48089;BME280;33867;50.314;7.802;2023-05-24T14:09:20;100945.28;;;16.03;nan
48089;BME280;33867;50.314;7.802;2023-05-24T14:12:39;100947.16;;;16.86;nan
48089;BME280;33867;50.314;7.802;2023-05-24T14:15:59;100955.88;;;16.15;nan
48089;BME280;33867;50.314;7.802;2023-05-24T14:19:18;100952.53;;;16.37;nan
48089;BME280;33867;50.314;7.802;2023-05-24T14:22:37;100945.44;;;16.69;nan
48089;BME280;33867;50.314;7.802;2023-05-24T14:25:57;100945.13;;;16.96;nan
48089;BME280;33867;50.314;7.802;2023-05-24T14:29:16;100942.75;;;16.77;nan
48089;BME280;33867;50.314;7.802;2023-05-24T14:32:35;100943.25;;;16.05;nan
48089;BME280;33867;50.314;7.802;2023-05-24T14:35:54;100953.84;;;16.25;nan
48089;BME280;33867;50.314;7.802;2023-05-24T14:39:14;100955.09;;;15.10;nan
48089;BME280;33867;50.314;7.802;2023-05-24T14:42:33;100966.72;;;14.59;nan
48089;BME280;33867;50.314;7.802;2023-05-24T14:45:52;100971.44;;;14.29;nan
48089;BME280;33867;50.314;7.802;2023-05-24T14:49:12;100971.88;;;14.52;nan
48089;BME280;33867;50.314;7.802;2023-05-24T14:52:31;100963.78;;;14.43;nan
48089;BME280;33867;50.314;7.802;2023-05-24T14:55:50;100966.72;;;14.59;nan
48089;BME280;33867;50.314;7.802;2023-05-24T14:59:11;100965.75;;;15.04;nan
48089;BME280;33867;50.314;7.802;2023-05-24T15:02:30;100955.78;;;15.30;nan
48089;BME280;33867;50.314;7.802;2023-05-24T15:05:49;100962.56;;;15.08;nan
48089;BME280;33867;50.314;7.802;2023-05-24T15:09:09;100960.97;;;15.49;nan
48089;BME280;33867;50.314;7.802;2023-05-24T15:12:29;100955.47;;;16.01;nan
48089;BME280;33867;50.314;7.802;2023-05-24T15:15:51;100945.28;;;17.19;nan
48089;BME280;33867;50.314;7.802;2023-05-24T15:19:51;100932.03;;;18.41;nan
48089;BME280;33867;50.314;7.802;2023-05-24T15:24:03;100925.59;;;18.11;nan
48089;BME280;33867;50.314;7.802;2023-05-24T15:27:23;100929.06;;;16.28;nan
48089;BME280;33867;50.314;7.802;2023-05-24T15:30:42;100935.84;;;16.32;nan
48089;BME280;33867;50.314;7.802;2023-05-24T15:34:04;100939.09;;;16.44;nan
48089;BME280;33867;50.314;7.802;2023-05-24T15:37:24;100936.19;;;16.29;nan
48089;BME280;33867;50.314;7.802;2023-05-24T15:40:43;100936.09;;;15.96;nan
48089;BME280;33867;50.314;7.802;2023-05-24T15:44:02;100936.66;;;16.83;nan
48089;BME280;33867;50.314;7.802;2023-05-24T15:47:27;100933.22;;;17.05;nan
48089;BME280;33867;50.314;7.802;2023-05-24T15:50:48;100935.25;;;17.03;nan
48089;BME280;33867;50.314;7.802;2023-05-24T15:54:07;100935.28;;;16.95;nan
48089;BME280;33867;50.314;7.802;2023-05-24T15:57:25;100923.34;;;16.63;nan
48089;BME280;33867;50.314;7.802;2023-05-24T16:00:47;100931.09;;;16.26;nan
48089;BME280;33867;50.314;7.802;2023-05-24T16:04:09;100931.16;;;15.92;nan
48089;BME280;33867;50.314;7.802;2023-05-24T16:07:28;100938.63;;;15.30;nan
48089;BME280;33867;50.314;7.802;2023-05-24T16:10:47;100927.78;;;15.04;nan
48089;BME280;33867;50.314;7.802;2023-05-24T16:14:06;100936.38;;;15.25;nan
48089;BME280;33867;50.314;7.802;2023-05-24T16:17:26;100935.16;;;15.45;nan
48089;BME280;33867;50.314;7.802;2023-05-24T16:21:06;100931.81;;;15.52;nan
48089;BME280;33867;50.314;7.802;2023-05-24T16:24:31;100932.94;;;14.71;nan
48089;BME280;33867;50.314;7.802;2023-05-24T16:27:51;100933.94;;;15.14;nan
48089;BME280;33867;50.314;7.802;2023-05-24T16:31:10;100932.06;;;15.14;nan
48089;BME280;33867;50.314;7.802;2023-05-24T16:34:29;100940.13;;;15.24;nan
48089;BME280;33867;50.314;7.802;2023-05-24T16:37:52;100926.88;;;15.21;nan
48089;BME280;33867;50.314;7.802;2023-05-24T16:41:13;100934.41;;;14.66;nan
48089;BME280;33867;50.314;7.802;2023-05-24T16:44:32;100930.19;;;14.89;nan
48089;BME280;33867;50.314;7.802;2023-05-24T16:47:54;100925.91;;;15.30;nan
48089;BME280;33867;50.314;7.802;2023-05-24T16:51:16;100922.97;;;15.49;nan
48089;BME280;33867;50.314;7.802;2023-05-24T16:54:38;100922.56;;;15.36;nan
48089;BME280;33867;50.314;7.802;2023-05-24T16:58:25;100938.72;;;14.76;nan
48089;BME280;33867;50.314;7.802;2023-05-24T17:02:04;100937.19;;;14.56;nan
48089;BME280;33867;50.314;7.802;2023-05-24T17:06:12;100941.09;;;14.44;nan
48089;BME280;33867;50.314;7.802;2023-05-24T17:09:48;100938.50;;;14.07;nan
48089;BME280;33867;50.314;7.802;2023-05-24T17:13:19;100929.63;;;14.59;nan
48089;BME280;33867;50.314;7.802;2023-05-24T17:17:13;100927.50;;;14.36;nan
48089;BME280;33867;50.314;7.802;2023-05-24T17:20:48;100929.94;;;14.56;nan
48089;BME280;33867;50.314;7.802;2023-05-24T17:24:34;100936.84;;;14.23;nan
48089;BME280;33867;50.314;7.802;2023-05-24T17:32:00;100934.22;;;14.14;nan
48089;BME280;33867;50.314;7.802;2023-05-24T17:35:39;100943.56;;;14.19;nan
48089;BME280;33867;50.314;7.802;2023-05-24T17:39:15;100942.75;;;13.64;nan
48089;BME280;33867;50.314;7.802;2023-05-24T17:43:09;100946.41;;;14.00;nan
48089;BME280;33867;50.314;7.802;2023-05-24T17:51:40;100947.47;;;13.89;nan
48089;BME280;33867;50.314;7.802;2023-05-24T17:59:57;100941.50;;;13.86;nan
48089;BME280;33867;50.314;7.802;2023-05-24T18:03:16;100948.91;;;13.84;nan
48089;BME280;33867;50.314;7.802;2023-05-24T18:06:36;100943.78;;;13.81;nan
48089;BME280;33867;50.314;7.802;2023-05-24T18:09:55;100952.38;;;13.76;nan
48089;BME280;33867;50.314;7.802;2023-05-24T18:13:14;100953.81;;;13.70;nan
48089;BME280;33867;50.314;7.802;2023-05-24T18:16:33;100955.31;;;13.55;nan
48089;BME280;33867;50.314;7.802;2023-05-24T18:19:55;100944.78;;;13.52;nan
48089;BME280;33867;50.314;7.802;2023-05-24T18:23:14;100957.03;;;13.46;nan
48089;BME280;33867;50.314;7.802;2023-05-24T18:26:33;100961.78;;;13.35;nan
48089;BME280;33867;50.314;7.802;2023-05-24T18:29:52;100953.84;;;13.04;nan
48089;BME280;33867;50.314;7.802;2023-05-24T18:33:12;100961.66;;;13.07;nan
48089;BME280;33867;50.314;7.802;2023-05-24T18:40:50;100975.50;;;12.85;nan
48089;BME280;33867;50.314;7.802;2023-05-24T18:44:09;100972.09;;;12.73;nan
48089;BME280;33867;50.314;7.802;2023-05-24T18:47:28;100975.50;;;12.56;nan